Terminal Aerodrome Forecast
Issued by NWS

Home | Current Version | Previous Version | Text Only | Print | Product List | Glossary Off
Versions: 1 2 3 4 5 6 7 8 9 10 11 12 13 14 15 16 17 18 19 20 21 22 23 24 25 26

000
FTUS43 KGRB 211300 AAA
TAFAUW
TAF AMD
KAUW 211350Z 2114/2212 11005KT 4SM BR VCSH BKN005 OVC030
      TEMPO 2114/2116 3SM TSRA BKN018CB
     FM211600 14007KT 6SM -SHRA BR SCT006 BKN035
      TEMPO 2116/2120 2SM TSRA BKN018CB
     FM212000 10006KT P6SM -SHRA BKN035 OVC070
      TEMPO 2120/2124 1SM TSRA BKN015CB
     FM220100 11004KT 5SM BR SCT015 BKN035
     FM220400 VRB03KT 2SM BR BKN004 BKN012=

USA.gov is the U.S. government's official web portal to all federal, state and local government web resources and services.